Latest Coastal Weather Observations for Horn Island

IDQ60701

Issued at 11:31 pm EST Friday 9 December 2016 (issued every 10 minutes, with the page automatically refreshed every 10 minutes)

About coastal observations | Map of coastal stations | Coastal observations for QLD | Marine services | Other Formats
Station Details ID: 027058 Name: HORN ISLAND Lat: -10.58 Lon: 142.29 Height: 4.0 m
Data from the previous 72 hours. | See also: Recent months at Horn Island
Date/Time
EST
Temp
°C
Wind Pressure Rain since
9am
mm
Weather Cloud Vis
km
Sea
Height
m
Swell
Dir  Spd
kts
Gust
kts
hPa Trend Height
m
Period
s
Dir
09/11:30pm 28.4 ESE 11 14 1009.0 - 0.0 - Partly cloudy 10 - - - -
09/11:00pm 28.6 ESE 10 15 1009.2 - 0.0 - Partly cloudy 10 - - - -
09/10:30pm 28.6 ESE 11 15 1009.4 - 0.0 - Partly cloudy 10 - - - -
09/10:00pm 28.6 ESE 12 16 1009.2 - 0.0 - Partly cloudy 10 - - - -
09/09:30pm 28.6 ESE 12 17 1009.3 - 0.0 - Partly cloudy 10 - - - -
09/09:00pm 28.7 ESE 11 15 1009.1 - 0.0 - Mostly clear 10 - - - -
09/08:30pm 28.7 ESE 13 16 1008.6 - 0.0 - Partly cloudy 10 - - - -
09/08:00pm 28.8 ESE 12 17 1008.2 - 0.0 - Partly cloudy 10 - - - -
09/07:30pm 28.8 ESE 12 16 1007.7 - 0.0 - Partly cloudy 10 - - - -
09/07:00pm 28.8 ESE 11 15 1007.1 - 0.0 - - 10 - - - -
09/06:30pm 29.2 E 13 16 1006.8 - 0.0 - - 10 - - - -
09/06:00pm 29.4 E 13 18 1006.4 - 0.0 - - 10 - - - -
09/05:30pm 29.7 E 14 21 1005.9 - 0.0 - - 10 - - - -
09/05:00pm 30.3 E 14 19 1006.0 - 0.0 - - 10 - - - -
09/04:30pm 30.4 E 15 19 1006.0 - 0.0 - - 10 - - - -
09/04:00pm 30.6 E 15 21 1006.1 - 0.0 - - 10 - - - -
09/03:30pm 30.8 E 17 21 1006.2 - 0.0 - - 10 - - - -
09/03:00pm 31.1 E 15 19 1006.6 - 0.0 - - 10 - - - -
09/02:30pm 31.1 E 15 19 1006.8 - 0.0 - - 10 - - - -
09/02:00pm 31.3 E 16 21 1007.0 - 0.0 - - 10 - - - -
09/01:30pm 31.6 E 15 21 1007.1 - 0.0 - - 10 - - - -
09/01:00pm 31.2 E 16 22 1007.5 - 0.0 - - 10 - - - -
09/12:30pm 31.5 E 15 21 1007.9 - 0.0 - - 10 - - - -
09/12:00pm 32.0 E 15 22 1008.3 - 0.0 - - 10 - - - -
09/11:30am 31.5 E 15 20 1008.6 - 0.0 - - 10 - - - -
09/11:00am 31.7 E 17 21 1008.9 - 0.0 - - 10 - - - -
09/10:30am 31.6 ESE 17 23 1009.1 - 0.0 - - 10 - - - -
09/10:00am 31.5 E 15 20 1009.2 - 0.0 - - 10 - - - -
09/09:30am 31.6 ESE 15 20 1009.1 - 0.0 - Partly cloudy 10 - - - -
09/09:00am 30.5 E 14 19 1009.0 - 0.0 - Mostly clear 10 - - - -
09/08:30am 30.2 E 14 20 1008.9 - 0.0 - Partly cloudy 10 - - - -
09/08:00am 29.6 E 13 18 1008.9 - 0.0 - Partly cloudy 10 - - - -
09/07:30am 29.3 ESE 12 18 1008.7 - 0.0 - Partly cloudy 10 - - - -
09/07:00am 28.8 E 11 16 1008.3 - 0.0 - Partly cloudy 10 - - - -
09/06:30am 28.3 ESE 12 16 1007.8 - 0.0 - - 10 - - - -
09/06:00am 28.1 ESE 13 17 1007.4 - 0.0 - - 10 - - - -
09/05:30am 28.1 ESE 10 15 1007.3 - 0.0 - Partly cloudy 10 - - - -
09/05:00am 28.1 E 12 16 1007.0 - 0.0 - - 10 - - - -
09/04:30am 28.2 E 10 14 1007.0 - 0.0 - Partly cloudy 10 - - - -
09/04:00am 28.1 ESE 10 15 1006.6 - 0.0 - Partly cloudy 10 - - - -
09/03:30am 28.2 E 13 17 1006.5 - 0.0 - - 10 - - - -
09/03:00am 28.2 ESE 13 17 1006.4 - 0.0 - - 10 - - - -
09/02:30am 28.3 E 13 18 1006.6 - 0.0 - - 10 - - - -
09/02:00am 28.5 E 13 17 1006.7 - 0.0 - Partly cloudy 10 - - - -
09/01:30am 28.4 E 13 17 1006.9 - 0.0 - Partly cloudy 10 - - - -
09/01:00am 28.4 ESE 12 16 1007.2 - 0.0 - Partly cloudy 10 - - - -
09/12:30am 28.5 ESE 12 16 1007.6 - 0.0 - Partly cloudy 10 - - - -
09/12:00am 28.6 ESE 12 15 1008.2 - 0.0 - Mostly clear 10 - - - -
 
Date/Time
EST
Temp
°C
Wind Pressure Rain since
9am
mm
Weather Cloud Vis
km
Sea
Height
m
Swell
Dir  Spd
kts
Gust
kts
hPa Trend Height
m
Period
s
Dir
08/11:30pm 28.5 ESE 13 18 1008.3 - 0.0 - - 10 - - - -
08/11:00pm 28.7 ESE 13 18 1008.4 - 0.0 - - 10 - - - -
08/10:30pm 28.8 ESE 14 19 1008.3 - 0.0 - Partly cloudy 10 - - - -
08/10:00pm 28.8 ESE 14 20 1007.8 - 0.0 - Partly cloudy 10 - - - -
08/09:30pm 28.8 ESE 13 18 1007.5 - 0.0 - - 10 - - - -
08/09:00pm 28.8 ESE 14 21 1007.5 - 0.0 - - 10 - - - -
08/08:30pm 29.0 ESE 14 18 1007.3 - 0.0 - Partly cloudy 10 - - - -
08/08:00pm 28.9 ESE 13 18 1007.0 - 0.0 - Partly cloudy 10 - - - -
08/07:30pm 29.0 ESE 15 22 1006.8 - 0.0 - Partly cloudy 10 - - - -
08/07:00pm 29.2 ESE 15 21 1006.5 - 0.0 - - 10 - - - -
08/06:30pm 29.4 ESE 16 21 1006.2 - 0.0 - - 10 - - - -
08/06:00pm 30.1 ESE 16 20 1005.7 - 0.0 - Mostly clear 10 - - - -
08/05:30pm 30.3 ESE 17 23 1005.5 - 0.0 - - 10 - - - -
08/05:00pm 31.0 ESE 17 23 1005.3 - 0.0 - - 10 - - - -
08/04:30pm 31.1 E 18 24 1005.0 - 0.0 - - 10 - - - -
08/04:00pm 31.0 E 18 23 1004.9 - 0.0 - - 10 - - - -
08/03:30pm 32.2 E 17 24 1004.9 - 0.0 - - 10 - - - -
08/03:00pm 31.9 E 17 23 1005.2 - 0.0 - - 10 - - - -
08/02:30pm 32.2 E 17 22 1005.3 - 0.0 - - 10 - - - -
08/02:00pm 32.2 E 16 22 1005.6 - 0.0 - - 10 - - - -
08/01:30pm 32.1 ESE 18 23 1005.9 - 0.0 - - 10 - - - -
08/01:00pm 31.5 E 17 23 1006.2 - 0.0 - - 10 - - - -
08/12:30pm 32.7 E 18 23 1006.9 - 0.0 - - 10 - - - -
08/12:00pm 31.7 E 16 23 1007.3 - 0.0 - - 10 - - - -
08/11:30am 31.4 E 17 22 1007.6 - 0.0 - - 10 - - - -
08/11:00am 31.5 E 17 23 1008.1 - 0.0 - - 10 - - - -
08/10:30am 31.7 E 16 21 1008.3 - 0.0 - - 10 - - - -
08/10:00am 30.9 ESE 18 22 1008.4 - 0.0 - Partly cloudy 10 - - - -
08/09:30am 31.0 E 15 20 1008.7 - 0.0 - Partly cloudy 10 - - - -
08/09:00am 30.7 E 16 21 1008.7 - 0.0 - Mostly clear 10 - - - -
08/08:30am 29.8 E 14 19 1008.8 - 0.0 - Partly cloudy 10 - - - -
08/08:00am 29.5 ESE 15 21 1008.5 - 0.0 - Partly cloudy 10 - - - -
08/07:30am 29.2 ESE 14 18 1008.4 - 0.0 - Partly cloudy 10 - - - -
08/07:00am 28.5 ESE 9 14 1008.1 - 0.0 - Partly cloudy 10 - - - -
08/06:30am 28.1 ESE 9 13 1007.9 - 0.0 - Partly cloudy 10 - - - -
08/06:00am 27.9 SE 9 14 1007.5 - 0.0 - Cloudy 10 - - - -
08/05:30am 28.0 ESE 10 13 1007.3 - 0.0 - Partly cloudy 10 - - - -
08/05:00am 28.1 ESE 9 14 1006.9 - 0.0 - Partly cloudy 10 - - - -
08/04:30am 27.9 E 11 16 1006.7 - 0.0 - Partly cloudy 10 - - - -
08/04:00am 27.8 E 11 15 1006.8 - 0.0 - Partly cloudy 10 - - - -
08/03:30am 28.1 ESE 10 15 1006.7 - 0.0 - Partly cloudy 10 - - - -
08/03:00am 28.1 ESE 9 13 1006.9 - 0.0 - Cloudy 10 - - - -
08/02:30am 28.1 ESE 11 15 1007.0 - 0.0 - Partly cloudy 10 - - - -
08/02:00am 28.1 ESE 11 16 1007.3 - 0.0 - Partly cloudy 10 - - - -
08/01:30am 28.2 ESE 11 14 1007.7 - 0.0 - Partly cloudy 10 - - - -
08/01:00am 28.1 ESE 11 15 1008.0 - 0.0 - Partly cloudy 10 - - - -
08/12:30am 28.1 ESE 10 14 1008.5 - 0.0 - Partly cloudy 10 - - - -
08/12:00am 28.1 ESE 9 12 1009.0 - 0.0 - Partly cloudy 10 - - - -
 
Date/Time
EST
Temp
°C
Wind Pressure Rain since
9am
mm
Weather Cloud Vis
km
Sea
Height
m
Swell
Dir  Spd
kts
Gust
kts
hPa Trend Height
m
Period
s
Dir
07/11:30pm 28.1 ESE 10 13 1009.4 - 0.0 - Partly cloudy 10 - - - -
07/11:00pm 28.1 SE 10 14 1009.4 - 0.0 - Partly cloudy 10 - - - -
07/10:30pm 28.2 SE 9 13 1009.5 - 0.0 - Partly cloudy 10 - - - -
07/10:00pm 28.2 ESE 8 11 1009.3 - 0.0 - Partly cloudy 10 - - - -
07/09:30pm 28.2 SE 10 14 1009.2 - 0.0 - - 10 - - - -
07/09:00pm 28.3 SE 10 15 1009.0 - 0.0 - - 10 - - - -
07/08:30pm 28.4 ESE 12 16 1008.6 - 0.0 - Partly cloudy 10 - - - -
07/08:00pm 28.5 ESE 12 17 1008.4 - 0.0 - Partly cloudy 10 - - - -
07/07:30pm 28.5 ESE 12 16 1008.1 - 0.0 - Partly cloudy 10 - - - -
07/07:00pm 28.7 ESE 14 19 1007.8 - 0.0 - Partly cloudy 10 - - - -
07/06:30pm 29.1 ESE 14 19 1007.5 - 0.0 - - 10 - - - -
07/06:00pm 29.4 ESE 14 17 1007.2 - 0.0 - - 10 - - - -
07/05:30pm 29.9 ESE 15 21 1006.7 - 0.0 - - 10 - - - -
07/05:00pm 30.0 E 17 23 1006.6 - 0.0 - - 10 - - - -
07/04:30pm 30.7 E 16 22 1006.5 - 0.0 - - 10 - - - -
07/04:00pm 31.1 E 17 23 1006.6 - 0.0 - - 10 - - - -
07/03:30pm 31.3 E 17 21 1006.7 - 0.0 - - 10 - - - -
07/03:00pm 31.6 E 16 22 1006.8 - 0.0 - - 10 - - - -
07/02:30pm 31.3 E 16 22 1007.0 - 0.0 - - 10 - - - -
07/02:00pm 31.5 E 16 21 1007.5 - 0.0 - - 10 - - - -
07/01:30pm 31.6 E 16 21 1007.9 - 0.0 - - 10 - - - -
07/01:00pm 31.9 E 15 19 1008.3 - 0.0 - - 10 - - - -
07/12:30pm 31.2 E 16 20 1008.7 - 0.0 - - 10 - - - -
07/12:00pm 31.0 E 17 23 1008.9 - 0.0 - - 10 - - - -
07/11:30am 31.1 ESE 16 21 1009.3 - 0.0 - - 10 - - - -
07/11:00am 31.3 ESE 15 20 1009.7 - 0.0 - - 10 - - - -
07/10:30am 30.9 E 15 20 1009.8 - 0.0 - - 10 - - - -
07/10:00am 31.2 E 15 19 1009.9 - 0.0 - - 10 - - - -
07/09:30am 31.0 ESE 13 18 1010.0 - 0.0 - - 10 - - - -
07/09:00am 30.6 ESE 13 17 1009.9 - 0.0 - - 10 - - - -
07/08:30am 29.8 ESE 14 18 1009.8 - 0.0 - - 10 - - - -
07/08:00am 29.4 ESE 15 19 1009.7 - 0.0 - - 10 - - - -
07/07:30am 28.9 ESE 13 18 1009.5 - 0.0 - - 10 - - - -
07/07:00am 28.5 ESE 11 15 1009.5 - 0.0 - - 10 - - - -
07/06:30am 27.9 ESE 11 15 1009.2 - 0.0 - Partly cloudy 10 - - - -
07/06:00am 27.7 ESE 10 15 1008.8 - 0.0 - Cloudy 10 - - - -
07/05:30am 27.9 ESE 13 16 1008.5 - 0.0 - Partly cloudy 10 - - - -
07/05:00am 27.9 ESE 11 15 1008.1 - 0.0 - Partly cloudy 10 - - - -
07/04:30am 27.9 ESE 11 15 1007.8 - 0.0 - Partly cloudy 6 - - - -
07/04:00am 27.7 ESE 10 14 1007.6 - 0.0 - - 10 - - - -
07/03:30am 27.9 ESE 11 14 1007.4 - 0.0 - Partly cloudy 10 - - - -
07/03:00am 28.0 SE 14 18 1007.4 - 0.0 - Mostly clear 10 - - - -
07/02:30am 28.0 ESE 13 18 1007.6 - 0.0 - Partly cloudy 10 - - - -
07/02:00am 28.0 ESE 12 17 1007.6 - 0.0 - Partly cloudy 10 - - - -
07/01:30am 28.2 ESE 13 18 1007.8 - 0.0 - Partly cloudy 10 - - - -
07/01:00am 28.2 ESE 13 17 1008.0 - 0.0 - Partly cloudy 10 - - - -
07/12:30am 28.3 ESE 13 18 1008.1 - 0.0 - Partly cloudy 10 - - - -
07/12:00am 28.4 ESE 13 17 1008.3 - 0.0 - Partly cloudy 10 - - - -

Other Formats:

Comma delimited format used in spreadsheet applications
http://www.bom.gov.au/fwo/IDQ60701/IDQ60701.94174.axf

JavaScript Object Notation format (JSON) in row-major order
http://www.bom.gov.au/fwo/IDQ60701/IDQ60701.94174.json